createdAt,value
2023-02-03T00:00:34.157Z,100702.44
2023-02-03T00:03:01.982Z,100704.22
2023-02-03T00:05:30.241Z,100705.16
2023-02-03T00:07:58.627Z,100691.19
2023-02-03T00:10:26.659Z,100699.69
2023-02-03T00:12:54.440Z,100707.53
2023-02-03T00:15:23.441Z,100703.97
2023-02-03T00:17:51.225Z,100704.13
2023-02-03T00:20:19.030Z,100704.94
2023-02-03T00:22:46.583Z,100702.34
2023-02-03T00:25:14.221Z,100705.88
2023-02-03T00:27:42.326Z,100705.94
2023-02-03T00:30:11.101Z,100709.38
2023-02-03T00:32:39.509Z,100706.84
2023-02-03T00:35:07.495Z,100716.41
2023-02-03T00:37:37.389Z,100710.59
2023-02-03T00:40:05.435Z,100714.06
2023-02-03T00:42:35.616Z,100716.66
2023-02-03T00:45:03.059Z,100716.50
2023-02-03T00:47:30.872Z,100707.94
2023-02-03T00:49:58.533Z,100722.78
2023-02-03T00:52:26.170Z,100728.63
2023-02-03T00:54:53.963Z,100719.22
2023-02-03T00:57:22.481Z,100726.94
2023-02-03T00:59:50.769Z,100727.03
2023-02-03T01:02:18.563Z,100723.63
2023-02-03T01:04:46.546Z,100726.16
2023-02-03T01:07:17.879Z,100735.56
2023-02-03T01:09:45.457Z,100733.28
2023-02-03T01:12:13.024Z,100725.50
2023-02-03T01:14:41.561Z,100725.56
2023-02-03T01:17:09.241Z,100735.06
2023-02-03T01:19:37.093Z,100732.53
2023-02-03T01:22:05.928Z,100729.09
2023-02-03T01:24:33.464Z,100733.44
2023-02-03T01:27:01.326Z,100736.97
2023-02-03T01:29:29.132Z,100731.81
2023-02-03T01:31:56.880Z,100733.59
2023-02-03T01:34:24.779Z,100729.16
2023-02-03T01:36:52.301Z,100723.81
2023-02-03T01:39:19.777Z,100723.94
2023-02-03T01:41:47.349Z,100734.41
2023-02-03T01:44:42.114Z,100728.44
2023-02-03T01:47:23.548Z,100736.34
2023-02-03T01:50:32.940Z,100731.16
2023-02-03T01:53:05.139Z,100738.00
2023-02-03T01:55:39.192Z,100741.34
2023-02-03T01:58:21.664Z,100746.59
2023-02-03T02:00:51.364Z,100739.47
2023-02-03T02:03:23.904Z,100746.44
2023-02-03T02:06:04.003Z,100743.72
2023-02-03T02:08:32.325Z,100749.66
2023-02-03T02:11:01.616Z,100744.34
2023-02-03T02:13:32.922Z,100750.34
2023-02-03T02:16:15.277Z,100751.19
2023-02-03T02:18:56.679Z,100744.41
2023-02-03T02:22:09.383Z,100749.66
2023-02-03T02:24:43.583Z,100741.28
2023-02-03T02:27:39.596Z,100741.31
2023-02-03T02:30:25.892Z,100750.78
2023-02-03T02:33:07.768Z,100747.13
2023-02-03T02:35:56.904Z,100746.19
2023-02-03T02:39:05.229Z,100743.81
2023-02-03T02:41:47.492Z,100743.69
2023-02-03T02:44:54.030Z,100747.19
2023-02-03T02:47:24.164Z,100752.16
2023-02-03T02:50:05.864Z,100758.22
2023-02-03T02:52:38.229Z,100746.19
2023-02-03T02:55:14.052Z,100746.19
2023-02-03T02:57:44.102Z,100748.91
2023-02-03T03:00:12.731Z,100755.00
2023-02-03T03:02:41.486Z,100748.91
2023-02-03T03:05:10.846Z,100741.88
2023-02-03T03:07:59.632Z,100749.66
2023-02-03T03:10:31.034Z,100747.78
2023-02-03T03:13:06.052Z,100746.72
2023-02-03T03:15:36.355Z,100746.03
2023-02-03T03:18:10.137Z,100747.19
2023-02-03T03:20:43.026Z,100743.88
2023-02-03T03:23:27.223Z,100742.28
2023-02-03T03:26:10.805Z,100748.25
2023-02-03T03:28:52.124Z,100746.78
2023-02-03T03:31:20.809Z,100743.41
2023-02-03T03:33:49.188Z,100736.44
2023-02-03T03:36:29.914Z,100746.75
2023-02-03T03:39:07.714Z,100741.72
2023-02-03T03:41:48.571Z,100742.47
2023-02-03T03:44:19.355Z,100738.28
2023-02-03T03:46:53.750Z,100739.25
2023-02-03T03:49:23.977Z,100739.25
2023-02-03T03:52:00.197Z,100743.47
2023-02-03T03:54:30.357Z,100743.53
2023-02-03T03:57:03.606Z,100745.25
2023-02-03T03:59:34.638Z,100743.44
2023-02-03T04:02:05.200Z,100746.81
2023-02-03T04:04:37.888Z,100753.19
2023-02-03T04:07:05.559Z,100749.66
2023-02-03T04:09:36.668Z,100752.97
2023-02-03T04:12:06.417Z,100758.34
2023-02-03T04:14:39.086Z,100743.53
2023-02-03T04:17:07.033Z,100749.75
2023-02-03T04:19:34.689Z,100754.97
2023-02-03T04:22:04.002Z,100760.16
2023-02-03T04:24:32.043Z,100761.28
2023-02-03T04:27:00.346Z,100764.69
2023-02-03T04:29:28.009Z,100762.13
2023-02-03T04:31:56.486Z,100769.84
2023-02-03T04:34:24.063Z,100765.56
2023-02-03T04:36:51.607Z,100760.44
2023-02-03T04:39:19.200Z,100758.75
2023-02-03T04:41:47.195Z,100762.22
2023-02-03T04:44:14.792Z,100762.28
2023-02-03T04:46:42.363Z,100772.59
2023-02-03T04:49:11.786Z,100777.13
2023-02-03T04:51:40.384Z,100773.69
2023-02-03T04:54:08.085Z,100771.78
2023-02-03T04:56:37.592Z,100775.25
2023-02-03T04:59:05.348Z,100783.97
2023-02-03T05:01:33.052Z,100794.56
2023-02-03T05:04:00.933Z,100790.16
2023-02-03T05:06:32.117Z,100783.22
2023-02-03T05:09:00.807Z,100782.38
2023-02-03T05:11:28.899Z,100782.38
2023-02-03T05:13:56.650Z,100789.31
2023-02-03T05:16:24.643Z,100793.63
2023-02-03T05:18:52.337Z,100792.69
2023-02-03T05:21:20.505Z,100794.56
2023-02-03T05:23:48.427Z,100795.53
2023-02-03T05:26:16.413Z,100802.53
2023-02-03T05:28:44.140Z,100796.41
2023-02-03T05:31:12.141Z,100806.03
2023-02-03T05:33:39.704Z,100803.44
2023-02-03T05:36:08.543Z,100803.41
2023-02-03T05:38:36.304Z,100800.72
2023-02-03T05:41:22.657Z,100806.75
2023-02-03T05:43:50.293Z,100818.94
2023-02-03T05:46:18.242Z,100811.19
2023-02-03T05:48:45.797Z,100810.38
2023-02-03T05:51:13.730Z,100804.34
2023-02-03T05:53:45.404Z,100808.59
2023-02-03T05:56:13.146Z,100819.00
2023-02-03T05:58:43.478Z,100825.25
2023-02-03T06:01:11.959Z,100816.59
2023-02-03T06:03:39.659Z,100822.63
2023-02-03T06:06:07.674Z,100813.03
2023-02-03T06:08:35.244Z,100821.66
2023-02-03T06:11:04.302Z,100829.53
2023-02-03T06:13:31.973Z,100824.22
2023-02-03T06:15:59.455Z,100819.75
2023-02-03T06:18:27.148Z,100828.47
2023-02-03T06:20:54.741Z,100824.88
2023-02-03T06:23:22.500Z,100829.38
2023-02-03T06:25:51.465Z,100828.38
2023-02-03T06:28:19.217Z,100831.69
2023-02-03T06:30:50.938Z,100840.47
2023-02-03T06:33:19.705Z,100841.13
2023-02-03T06:35:47.711Z,100846.19
2023-02-03T06:38:15.631Z,100843.50
2023-02-03T06:40:46.354Z,100857.47
2023-02-03T06:43:14.599Z,100854.09
2023-02-03T06:45:46.357Z,100857.47
2023-02-03T06:48:14.245Z,100856.50
2023-02-03T06:50:42.033Z,100856.41
2023-02-03T06:53:09.778Z,100857.13
2023-02-03T06:55:37.622Z,100866.59
2023-02-03T06:58:05.219Z,100870.41
2023-02-03T07:00:33.367Z,100878.91
2023-02-03T07:03:02.524Z,100872.06
2023-02-03T07:05:30.530Z,100879.69
2023-02-03T07:07:59.122Z,100872.63
2023-02-03T07:10:27.105Z,100875.25
2023-02-03T07:12:54.980Z,100870.06
2023-02-03T07:15:25.784Z,100871.81
2023-02-03T07:17:54.991Z,100877.22
2023-02-03T07:20:23.937Z,100873.72
2023-02-03T07:22:54.553Z,100864.94
2023-02-03T07:25:22.888Z,100870.06
2023-02-03T07:27:51.220Z,100872.56
2023-02-03T07:30:19.029Z,100867.16
2023-02-03T07:32:48.352Z,100863.69
2023-02-03T07:35:16.550Z,100865.44
2023-02-03T07:37:44.151Z,100857.53
2023-02-03T07:40:13.498Z,100851.16
2023-02-03T07:42:43.159Z,100851.84
2023-02-03T07:45:10.991Z,100855.22
2023-02-03T07:47:39.056Z,100844.81
2023-02-03T07:50:07.663Z,100838.56
2023-02-03T07:52:35.392Z,100841.19
2023-02-03T07:55:03.813Z,100835.06
2023-02-03T07:57:31.759Z,100834.13
2023-02-03T07:59:59.718Z,100828.84
2023-02-03T08:02:27.567Z,100832.19
2023-02-03T08:04:58.067Z,100831.88
2023-02-03T08:07:25.976Z,100823.78
2023-02-03T08:09:53.495Z,100821.09
2023-02-03T08:12:21.265Z,100828.91
2023-02-03T08:14:48.951Z,100816.63
2023-02-03T08:17:16.864Z,100818.94
2023-02-03T08:19:45.236Z,100808.22
2023-02-03T08:22:16.266Z,100805.59
2023-02-03T08:24:48.244Z,100806.41
2023-02-03T08:27:21.569Z,100807.34
2023-02-03T08:29:49.482Z,100808.22
2023-02-03T08:32:19.689Z,100802.91
2023-02-03T08:34:47.689Z,100796.75
2023-02-03T08:37:16.995Z,100795.97
2023-02-03T08:39:45.144Z,100801.19
2023-02-03T08:42:12.846Z,100795.19
2023-02-03T08:44:40.491Z,100794.31
2023-02-03T08:47:09.262Z,100797.69
2023-02-03T08:49:39.651Z,100783.13
2023-02-03T08:52:11.672Z,100784.06
2023-02-03T08:54:39.754Z,100783.03
2023-02-03T08:57:08.095Z,100785.72
2023-02-03T08:59:42.663Z,100772.75
2023-02-03T09:02:15.655Z,100783.94
2023-02-03T09:04:44.408Z,100783.91
2023-02-03T09:07:13.536Z,100778.63
2023-02-03T09:09:41.447Z,100769.63
2023-02-03T09:12:10.687Z,100763.66
2023-02-03T09:14:40.528Z,100767.53
2023-02-03T09:17:09.702Z,100757.59
2023-02-03T09:19:37.739Z,100755.56
2023-02-03T09:22:05.697Z,100761.66
2023-02-03T09:24:33.759Z,100761.69
2023-02-03T09:27:01.658Z,100754.53
2023-02-03T09:29:29.996Z,100747.28
2023-02-03T09:31:57.786Z,100742.75
2023-02-03T09:34:25.420Z,100737.81
2023-02-03T09:36:52.976Z,100734.84
2023-02-03T09:39:20.933Z,100727.81
2023-02-03T09:42:07.610Z,100722.63
2023-02-03T09:44:55.121Z,100728.59
2023-02-03T09:47:27.157Z,100723.69
2023-02-03T09:50:00.499Z,100724.91
2023-02-03T09:52:34.375Z,100731.19
2023-02-03T09:55:16.582Z,100719.69
2023-02-03T09:57:51.568Z,100715.19
2023-02-03T10:00:27.179Z,100724.00
2023-02-03T10:03:04.148Z,100716.91
2023-02-03T10:06:05.784Z,100715.69
2023-02-03T10:08:57.678Z,100718.50
2023-02-03T10:11:38.772Z,100715.69
2023-02-03T10:14:12.160Z,100710.22
2023-02-03T10:16:46.136Z,100714.72
2023-02-03T10:19:21.024Z,100701.31
2023-02-03T10:21:55.487Z,100704.19
2023-02-03T10:24:32.063Z,100698.03
2023-02-03T10:27:02.757Z,100689.69
2023-02-03T10:29:38.443Z,100695.28
2023-02-03T10:32:10.511Z,100689.41
2023-02-03T10:34:39.308Z,100686.25
2023-02-03T10:37:23.175Z,100690.16
2023-02-03T10:39:53.229Z,100682.50
2023-02-03T10:42:23.242Z,100689.91
2023-02-03T10:45:01.472Z,100680.88
2023-02-03T10:47:37.095Z,100682.38
2023-02-03T10:50:16.692Z,100677.81
2023-02-03T10:52:44.200Z,100671.84
2023-02-03T10:55:27.074Z,100668.78
2023-02-03T10:57:55.491Z,100676.91
2023-02-03T11:00:29.025Z,100670.94
2023-02-03T11:03:21.334Z,100657.22
2023-02-03T11:06:11.182Z,100667.81
2023-02-03T11:08:42.251Z,100666.94
2023-02-03T11:11:25.279Z,100666.81
2023-02-03T11:13:54.843Z,100660.00
2023-02-03T11:16:26.466Z,100666.78
2023-02-03T11:18:59.339Z,100663.25
2023-02-03T11:21:41.633Z,100661.38
2023-02-03T11:24:20.387Z,100652.00
2023-02-03T11:27:16.118Z,100647.72
2023-02-03T11:29:46.339Z,100636.78
2023-02-03T11:32:24.162Z,100645.63
2023-02-03T11:35:01.016Z,100639.59
2023-02-03T11:37:39.953Z,100638.38
2023-02-03T11:40:07.534Z,100645.97
2023-02-03T11:42:37.103Z,100638.81
2023-02-03T11:45:14.189Z,100637.50
2023-02-03T11:47:58.487Z,100633.22
2023-02-03T11:50:51.439Z,100634.72
2023-02-03T11:53:55.148Z,100635.59
2023-02-03T11:56:35.746Z,100635.69
2023-02-03T11:59:06.186Z,100638.16
2023-02-03T12:02:01.932Z,100635.34
2023-02-03T12:04:38.830Z,100640.13
2023-02-03T12:07:43.716Z,100639.25
2023-02-03T12:10:35.787Z,100628.88
2023-02-03T12:13:25.729Z,100640.34
2023-02-03T12:16:22.753Z,100645.69
2023-02-03T12:19:16.955Z,100644.97
2023-02-03T12:21:51.569Z,100630.97
2023-02-03T12:24:58.245Z,100635.69
2023-02-03T12:27:36.571Z,100635.69
2023-02-03T12:30:20.357Z,100641.06
2023-02-03T12:32:55.240Z,100643.53
2023-02-03T12:35:34.714Z,100640.59
2023-02-03T12:38:27.022Z,100637.78
2023-02-03T12:41:06.437Z,100635.28
2023-02-03T12:43:50.838Z,100639.63
2023-02-03T12:46:26.320Z,100633.47
2023-02-03T12:49:06.495Z,100628.84
2023-02-03T12:51:44.053Z,100622.19
2023-02-03T12:54:27.481Z,100628.69
2023-02-03T12:56:58.279Z,100632.03
2023-02-03T12:59:30.742Z,100620.69
2023-02-03T13:02:03.918Z,100628.59
2023-02-03T13:04:52.072Z,100628.59
2023-02-03T13:07:38.900Z,100621.00
2023-02-03T13:10:13.999Z,100625.53
2023-02-03T13:12:50.129Z,100625.66
2023-02-03T13:15:29.046Z,100632.16
2023-02-03T13:18:04.749Z,100630.69
2023-02-03T13:20:36.674Z,100630.25
2023-02-03T13:23:08.318Z,100625.97
2023-02-03T13:25:51.573Z,100627.75
2023-02-03T13:28:54.254Z,100621.34
2023-02-03T13:31:38.613Z,100622.94
2023-02-03T13:34:24.919Z,100621.09
2023-02-03T13:37:11.164Z,100617.56
2023-02-03T13:40:03.405Z,100614.94
2023-02-03T13:42:46.369Z,100615.03
2023-02-03T13:45:29.130Z,100608.88
2023-02-03T13:48:20.651Z,100613.50
2023-02-03T13:50:51.054Z,100607.28
2023-02-03T13:53:22.449Z,100603.69
2023-02-03T13:56:01.985Z,100612.00
2023-02-03T13:58:34.756Z,100608.44
2023-02-03T14:01:27.589Z,100602.28
2023-02-03T14:03:56.016Z,100596.34
2023-02-03T14:06:38.847Z,100597.41
2023-02-03T14:09:30.915Z,100596.06
2023-02-03T14:12:43.696Z,100589.00
2023-02-03T14:15:26.587Z,100597.22
2023-02-03T14:17:58.592Z,100594.38
2023-02-03T14:20:26.961Z,100597.22
2023-02-03T14:23:07.785Z,100598.25
2023-02-03T14:25:45.739Z,100607.03
2023-02-03T14:28:21.776Z,100609.66
2023-02-03T14:31:03.450Z,100609.72
2023-02-03T14:33:49.212Z,100609.88
2023-02-03T14:36:38.148Z,100612.66
2023-02-03T14:39:18.886Z,100615.34
2023-02-03T14:41:55.849Z,100617.06
2023-02-03T14:44:32.381Z,100605.16
2023-02-03T14:47:23.114Z,100608.69
2023-02-03T14:50:02.696Z,100618.56
2023-02-03T14:52:49.254Z,100619.47
2023-02-03T14:55:41.142Z,100626.22
2023-02-03T14:58:31.188Z,100610.94
2023-02-03T15:01:00.639Z,100624.13
2023-02-03T15:03:30.588Z,100622.41
2023-02-03T15:06:03.438Z,100626.94
2023-02-03T15:08:37.066Z,100625.16
2023-02-03T15:11:33.350Z,100626.03
2023-02-03T15:14:26.352Z,100625.09
2023-02-03T15:17:25.855Z,100625.72
2023-02-03T15:19:53.492Z,100629.19
2023-02-03T15:22:23.761Z,100636.03
2023-02-03T15:24:53.838Z,100632.56
2023-02-03T15:27:32.133Z,100627.16
2023-02-03T15:30:27.940Z,100621.25
2023-02-03T15:33:06.197Z,100619.59
2023-02-03T15:35:37.889Z,100616.97
2023-02-03T15:38:17.368Z,100612.75
2023-02-03T15:40:49.655Z,100611.91
2023-02-03T15:43:44.511Z,100611.91
2023-02-03T15:46:26.853Z,100618.75
2023-02-03T15:49:13.202Z,100607.41
2023-02-03T15:51:47.480Z,100618.59
2023-02-03T15:54:19.151Z,100617.03
2023-02-03T15:56:57.752Z,100605.03
2023-02-03T15:59:40.908Z,100612.00
2023-02-03T16:02:22.715Z,100611.16
2023-02-03T16:04:50.720Z,100613.00
2023-02-03T16:07:24.003Z,100610.47
2023-02-03T16:10:01.302Z,100610.50
2023-02-03T16:12:33.983Z,100608.78
2023-02-03T16:15:02.437Z,100598.41
2023-02-03T16:17:35.842Z,100613.00
2023-02-03T16:20:12.328Z,100612.38
2023-02-03T16:22:45.858Z,100607.09
2023-02-03T16:25:24.746Z,100602.72
2023-02-03T16:28:19.519Z,100608.25
2023-02-03T16:31:15.380Z,100602.97
2023-02-03T16:34:06.124Z,100607.09
2023-02-03T16:36:59.772Z,100599.47
2023-02-03T16:39:45.875Z,100606.53
2023-02-03T16:42:37.877Z,100599.59
2023-02-03T16:45:32.803Z,100615.22
2023-02-03T16:48:19.693Z,100607.28
2023-02-03T16:50:52.576Z,100602.06
2023-02-03T16:53:30.461Z,100592.47
2023-02-03T16:56:04.396Z,100597.69
2023-02-03T16:58:33.195Z,100588.09
2023-02-03T17:01:03.948Z,100583.88
2023-02-03T17:03:35.048Z,100584.84
2023-02-03T17:06:13.443Z,100586.53
2023-02-03T17:08:42.350Z,100589.16
2023-02-03T17:11:18.608Z,100590.00
2023-02-03T17:13:47.790Z,100581.56
2023-02-03T17:16:18.605Z,100577.25
2023-02-03T17:18:47.174Z,100584.03
2023-02-03T17:21:17.939Z,100582.38
2023-02-03T17:23:46.087Z,100581.47
2023-02-03T17:26:13.792Z,100585.19
2023-02-03T17:28:43.150Z,100577.28
2023-02-03T17:31:17.035Z,100572.97
2023-02-03T17:33:45.406Z,100578.50
2023-02-03T17:36:18.117Z,100575.09
2023-02-03T17:55:24.020Z,100567.09
2023-02-03T17:57:52.275Z,100565.09
2023-02-03T18:00:20.130Z,100559.16
2023-02-03T18:02:52.032Z,100561.88
2023-02-03T18:05:19.721Z,100560.06
2023-02-03T18:10:16.192Z,100550.78
2023-02-03T18:12:44.306Z,100549.97
2023-02-03T18:15:11.827Z,100543.91
2023-02-03T18:17:42.842Z,100536.06
2023-02-03T18:20:11.740Z,100536.00
2023-02-03T18:22:39.676Z,100534.28
2023-02-03T18:25:09.732Z,100536.84
2023-02-03T18:27:39.694Z,100535.00
2023-02-03T18:30:11.328Z,100536.91
2023-02-03T18:32:38.957Z,100535.34
2023-02-03T18:35:11.758Z,100536.22
2023-02-03T18:37:39.918Z,100519.88
2023-02-03T18:40:10.509Z,100530.31
2023-02-03T18:42:38.076Z,100523.63
2023-02-03T18:45:06.523Z,100530.72
2023-02-03T18:47:34.374Z,100532.50
2023-02-03T18:50:04.565Z,100534.28
2023-02-03T18:52:32.882Z,100532.69
2023-02-03T18:55:00.873Z,100528.34
2023-02-03T18:57:28.714Z,100535.34
2023-02-03T18:59:56.535Z,100535.53
2023-02-03T19:02:25.883Z,100523.28
2023-02-03T19:04:53.542Z,100523.47
2023-02-03T19:07:21.556Z,100527.84
2023-02-03T19:09:49.207Z,100517.34
2023-02-03T19:12:16.792Z,100529.50
2023-02-03T19:14:44.461Z,100525.00
2023-02-03T19:17:12.448Z,100531.13
2023-02-03T19:19:40.309Z,100520.72
2023-02-03T19:22:07.943Z,100526.84
2023-02-03T19:24:35.611Z,100516.31
2023-02-03T19:27:03.265Z,100512.72
2023-02-03T19:29:30.912Z,100505.94
2023-02-03T19:31:58.663Z,100513.91
2023-02-03T19:34:28.204Z,100507.72
2023-02-03T19:36:56.489Z,100500.81
2023-02-03T19:39:24.048Z,100497.31
2023-02-03T19:41:52.463Z,100501.81
2023-02-03T19:44:20.066Z,100493.03
2023-02-03T19:46:47.859Z,100494.88
2023-02-03T19:49:15.788Z,100495.06
2023-02-03T19:51:44.569Z,100491.59
2023-02-03T19:54:14.678Z,100488.13
2023-02-03T19:56:45.556Z,100487.41
2023-02-03T19:59:13.193Z,100502.13
2023-02-03T20:01:40.823Z,100491.69
2023-02-03T20:04:08.455Z,100500.41
2023-02-03T20:06:36.425Z,100497.00
2023-02-03T20:09:06.730Z,100501.31
2023-02-03T20:11:34.460Z,100494.56
2023-02-03T20:14:02.851Z,100494.69
2023-02-03T20:16:30.565Z,100487.00
2023-02-03T20:18:58.435Z,100487.72
2023-02-03T20:21:26.120Z,100495.59
2023-02-03T20:23:54.395Z,100495.59
2023-02-03T20:26:22.249Z,100489.69
2023-02-03T20:28:51.515Z,100492.44
2023-02-03T20:31:24.023Z,100488.88
2023-02-03T20:33:53.377Z,100494.94
2023-02-03T20:36:21.028Z,100489.81
2023-02-03T20:38:48.786Z,100487.03
2023-02-03T20:41:18.287Z,100485.47
2023-02-03T20:43:45.976Z,100489.84
2023-02-03T20:46:17.370Z,100495.03
2023-02-03T20:48:45.545Z,100491.63
2023-02-03T20:51:18.932Z,100480.50
2023-02-03T20:53:48.084Z,100483.91
2023-02-03T20:56:21.443Z,100485.72
2023-02-03T20:58:49.416Z,100489.13
2023-02-03T21:01:20.282Z,100482.16
2023-02-03T21:04:07.006Z,100485.63
2023-02-03T21:06:35.763Z,100487.28
2023-02-03T21:09:19.072Z,100483.91
2023-02-03T21:11:46.937Z,100482.34
2023-02-03T21:14:27.565Z,100482.53
2023-02-03T21:16:55.582Z,100481.66
2023-02-03T21:19:32.998Z,100486.00
2023-02-03T21:22:15.210Z,100482.50
2023-02-03T21:24:47.893Z,100490.41
2023-02-03T21:27:35.025Z,100475.69
2023-02-03T21:30:22.767Z,100483.44
2023-02-03T21:32:50.680Z,100485.38
2023-02-03T21:35:25.628Z,100482.78
2023-02-03T21:37:57.176Z,100483.59
2023-02-03T21:40:28.310Z,100479.16
2023-02-03T21:42:56.488Z,100480.78
2023-02-03T21:45:34.403Z,100476.47
2023-02-03T21:48:22.343Z,100467.88
2023-02-03T21:50:50.433Z,100474.06
2023-02-03T21:53:35.755Z,100468.78
2023-02-03T21:56:22.347Z,100467.06
2023-02-03T21:58:51.364Z,100469.72
2023-02-03T22:01:22.831Z,100462.75
2023-02-03T22:03:52.701Z,100461.84
2023-02-03T22:06:24.530Z,100460.94
2023-02-03T22:08:54.485Z,100463.66
2023-02-03T22:11:24.159Z,100454.03
2023-02-03T22:13:52.652Z,100466.06
2023-02-03T22:16:21.013Z,100452.22
2023-02-03T22:18:49.446Z,100449.66
2023-02-03T22:21:18.184Z,100452.47
2023-02-03T22:23:45.995Z,100463.81
2023-02-03T22:26:15.145Z,100456.06
2023-02-03T22:28:43.208Z,100455.09
2023-02-03T22:31:13.031Z,100453.31
2023-02-03T22:33:41.999Z,100451.53
2023-02-03T22:36:10.762Z,100451.63
2023-02-03T22:38:39.752Z,100451.88
2023-02-03T22:41:09.498Z,100457.91
2023-02-03T22:43:37.031Z,100457.91
2023-02-03T22:46:06.922Z,100447.50
2023-02-03T22:48:35.008Z,100454.41
2023-02-03T22:51:02.739Z,100453.59
2023-02-03T22:53:30.511Z,100457.13
2023-02-03T22:55:58.413Z,100456.56
2023-02-03T22:58:26.285Z,100462.75
2023-02-03T23:00:53.808Z,100453.97
2023-02-03T23:03:21.568Z,100451.47
2023-02-03T23:05:49.825Z,100450.69
2023-02-03T23:08:17.502Z,100456.75
2023-02-03T23:10:45.073Z,100462.88
2023-02-03T23:13:16.945Z,100455.72
2023-02-03T23:15:44.621Z,100457.50
2023-02-03T23:18:12.354Z,100460.88
2023-02-03T23:20:41.802Z,100461.63
2023-02-03T23:23:09.812Z,100467.44
2023-02-03T23:25:38.034Z,100451.69
2023-02-03T23:28:05.659Z,100461.41
2023-02-03T23:30:34.236Z,100458.03
2023-02-03T23:33:02.038Z,100457.81
2023-02-03T23:35:49.572Z,100450.75
2023-02-03T23:38:18.188Z,100449.16
2023-02-03T23:40:45.953Z,100447.50
2023-02-03T23:43:14.255Z,100445.00
2023-02-03T23:45:42.067Z,100446.00
2023-02-03T23:48:10.110Z,100447.72
2023-02-03T23:50:37.790Z,100450.41
2023-02-03T23:53:05.400Z,100446.03
2023-02-03T23:55:33.333Z,100447.84
2023-02-03T23:58:00.869Z,100449.38
